Latest Coastal Weather Observations for Cooktown

IDQ60701

Issued at 5:31 am EST Thursday 17 August 2017 (issued every 10 minutes, with the page automatically refreshed every 10 minutes)

About coastal observations | Map of coastal stations | Coastal observations for QLD | Marine services | Other Formats
Station Details ID: 031209 Name: COOKTOWN AIRPORT Lat: -15.45 Lon: 145.19 Height: 4.8 m
Data from the previous 72 hours. | See also: Recent months at Cooktown
Date/Time
EST
Temp
°C
Wind Pressure Rain since
9am
mm
Weather Cloud Vis
km
Sea
Height
m
Swell
Dir  Spd
kts
Gust
kts
hPa Trend Height
m
Period
s
Dir
17/05:30am 22.9 SE 9 13 1013.7 - 0.0 - Partly cloudy 10 - - - -
17/05:00am 23.0 ESE 9 15 1013.4 - 0.0 - Partly cloudy 10 - - - -
17/04:30am 22.9 SE 8 12 1013.1 - 0.0 - Partly cloudy 10 - - - -
17/04:00am 23.0 SE 9 14 1013.0 - 0.0 - Partly cloudy 10 - - - -
17/03:30am 23.2 SE 10 16 1013.0 - 0.0 - Partly cloudy 10 - - - -
17/03:00am 23.2 SE 9 14 1013.2 - 0.0 - Cloudy 10 - - - -
17/02:30am 23.3 SSE 10 14 1013.4 - 0.0 - Partly cloudy 10 - - - -
17/02:00am 23.3 ESE 11 16 1013.6 - 0.0 - Partly cloudy 10 - - - -
17/01:30am 23.2 ESE 11 18 1013.6 - 0.0 - Partly cloudy 10 - - - -
17/01:00am 23.2 SE 11 17 1013.6 - 0.0 - - 10 - - - -
17/12:30am 23.3 SE 10 15 1014.0 - 0.0 - - 10 - - - -
17/12:00am 23.5 ESE 11 18 1014.2 - 0.0 - Partly cloudy 10 - - - -
 
Date/Time
EST
Temp
°C
Wind Pressure Rain since
9am
mm
Weather Cloud Vis
km
Sea
Height
m
Swell
Dir  Spd
kts
Gust
kts
hPa Trend Height
m
Period
s
Dir
16/11:30pm 23.3 ESE 10 15 1014.2 - 0.0 - Partly cloudy 10 - - - -
16/11:00pm 23.5 ESE 13 18 1014.2 - 0.0 - Partly cloudy 10 - - - -
16/10:30pm 23.5 ESE 11 16 1014.1 - 0.0 - Partly cloudy 10 - - - -
16/10:00pm 23.6 ESE 10 17 1014.1 - 0.0 - Partly cloudy 10 - - - -
16/09:30pm 23.2 ESE 10 14 1014.0 - 0.0 - Partly cloudy 10 - - - -
16/09:00pm 23.0 ESE 9 14 1013.8 - 0.0 - - 10 - - - -
16/08:30pm 22.9 SE 9 13 1013.6 - 0.0 - - 10 - - - -
16/08:00pm 23.1 SE 9 15 1013.4 - 0.0 - Partly cloudy 10 - - - -
16/07:30pm 23.4 ESE 10 15 1013.2 - 0.0 - Partly cloudy 10 - - - -
16/07:00pm 23.5 ESE 10 14 1013.1 - 0.0 - Partly cloudy 10 - - - -
16/06:30pm 23.6 SE 9 15 1012.8 - 0.0 - Partly cloudy 10 - - - -
16/06:00pm 23.9 ESE 11 16 1012.5 - 0.0 - Mostly cloudy 10 - - - -
16/05:30pm 24.1 SE 10 15 1012.4 - 0.0 - Partly cloudy 10 - - - -
16/05:00pm 24.5 SE 11 18 1012.2 - 0.0 - Partly cloudy 10 - - - -
16/04:30pm 24.8 SE 13 20 1012.1 - 0.0 - Partly cloudy 10 - - - -
16/04:00pm 24.9 ESE 12 17 1012.0 - 0.0 - Partly cloudy 10 - - - -
16/03:30pm 25.6 ESE 11 18 1012.0 - 0.0 - Partly cloudy 10 - - - -
16/03:00pm 26.4 ESE 11 - 1012.2 - 0.0 - Cloudy - - - - -
16/02:30pm 25.9 SE 12 18 1012.4 - 0.0 - Partly cloudy 10 - - - -
16/02:00pm 25.4 ESE 13 19 1012.8 - 0.0 - Partly cloudy 10 - - - -
16/01:30pm 25.5 SE 12 19 1013.1 - 0.0 - Partly cloudy 10 - - - -
16/01:00pm 27.2 SE 13 17 1013.5 - 0.0 - Partly cloudy 10 - - - -
16/12:30pm 27.2 ESE 12 20 1013.8 - 0.0 - Cloudy 10 - - - -
16/12:00pm 26.4 SE 11 17 1014.5 - 0.0 - Cloudy 10 - - - -
16/11:30am 26.7 E 16 21 1014.8 - 0.0 - Partly cloudy 10 - - - -
16/11:00am 27.6 ESE 15 21 1015.1 - 0.0 - Partly cloudy 10 - - - -
16/10:30am 27.4 E 14 20 1015.4 - 0.0 - Partly cloudy 10 - - - -
16/10:00am 26.5 ESE 14 20 1015.6 - 0.0 - Partly cloudy 10 - - - -
16/09:30am 26.3 E 15 19 1015.7 - 0.0 - - 10 - - - -
16/09:00am 26.1 E 13 - 1015.6 R 0.0 Fine Mostly clear 40 - - - -
16/08:30am 25.5 ESE 11 15 1015.4 - 0.0 - Partly cloudy 10 - - - -
16/08:00am 25.2 ESE 12 19 1015.1 - 0.0 - Partly cloudy 10 - - - -
16/07:30am 23.8 ESE 10 16 1014.8 - 0.0 - - 10 - - - -
16/07:00am 22.7 ESE 8 11 1014.7 - 0.0 - Partly cloudy 10 - - - -
16/06:30am 22.2 SE 6 10 1014.5 - 0.0 - Partly cloudy 10 - - - -
16/06:00am 22.2 SE 7 9 1014.1 - 0.0 - Mostly clear 10 - - - -
16/05:30am 22.4 SE 8 11 1013.9 - 0.0 - Partly cloudy 10 - - - -
16/05:00am 22.6 SE 8 13 1013.6 - 0.0 - Partly cloudy 10 - - - -
16/04:30am 22.3 SE 7 10 1013.5 - 0.0 - Partly cloudy 10 - - - -
16/04:00am 22.3 SE 7 13 1013.4 - 0.0 - Partly cloudy 10 - - - -
16/03:30am 23.0 ESE 10 15 1013.3 - 0.0 - Partly cloudy 10 - - - -
16/03:00am 22.8 ESE 11 16 1013.5 - 0.0 - Partly cloudy 10 - - - -
16/02:30am 23.2 ESE 10 15 1013.7 - 0.0 - Partly cloudy 10 - - - -
16/02:00am 23.2 ESE 11 19 1013.9 - 0.0 - Partly cloudy 10 - - - -
16/01:30am 22.8 ESE 9 16 1014.1 - 0.0 - Partly cloudy 10 - - - -
16/01:00am 23.2 ESE 9 17 1014.4 - 0.0 - Partly cloudy 10 - - - -
16/12:30am 22.8 ESE 8 11 1014.7 - 0.0 - Partly cloudy 10 - - - -
16/12:00am 22.9 SE 9 15 1014.9 - 0.0 - Partly cloudy 10 - - - -
 
Date/Time
EST
Temp
°C
Wind Pressure Rain since
9am
mm
Weather Cloud Vis
km
Sea
Height
m
Swell
Dir  Spd
kts
Gust
kts
hPa Trend Height
m
Period
s
Dir
15/11:30pm 23.1 SE 11 15 1014.9 - 0.0 - Partly cloudy 10 - - - -
15/11:00pm 23.2 SE 9 16 1015.1 - 0.0 - Partly cloudy 10 - - - -
15/10:30pm 23.2 SE 9 15 1015.3 - 0.0 - - 10 - - - -
15/10:00pm 23.2 SE 10 15 1015.3 - 0.0 - Partly cloudy 10 - - - -
15/09:30pm 23.1 SE 9 14 1015.3 - 0.0 - Partly cloudy 10 - - - -
15/09:00pm 23.2 SE 9 13 1015.5 - 0.0 - Mostly clear 10 - - - -
15/08:30pm 23.4 ESE 9 14 1015.3 - 0.0 - Partly cloudy 10 - - - -
15/07:30pm 22.8 SE 6 9 1014.9 - 0.0 - Partly cloudy 10 - - - -
15/07:00pm 23.0 SE 6 10 1014.7 - 0.0 - Partly cloudy 10 - - - -
15/06:30pm 23.6 SE 8 14 1014.5 - 0.0 - Partly cloudy 10 - - - -
15/06:00pm 23.9 SE 9 11 1014.5 - 0.0 - Mostly cloudy 10 - - - -
15/05:30pm 24.3 SE 10 17 1014.4 - 0.0 - Partly cloudy 10 - - - -
15/05:00pm 24.7 SE 13 19 1014.1 - 0.0 - Partly cloudy 10 - - - -
15/04:30pm 25.1 SE 10 19 1013.9 - 0.0 - Partly cloudy 10 - - - -
15/04:00pm 25.3 ESE 12 16 1013.7 - 0.0 - Partly cloudy 10 - - - -
15/03:30pm 25.7 SE 11 21 1013.7 - 0.0 - Cloudy 10 - - - -
15/03:00pm 25.4 SE 15 23 1013.8 - 0.0 - Cloudy 10 - - - -
15/02:30pm 25.7 ESE 16 24 1014.0 - 0.0 - Partly cloudy 10 - - - -
15/02:00pm 26.0 ESE 15 22 1014.1 - 0.0 - Partly cloudy 10 - - - -
15/01:33pm 27.0 ESE 15 25 1014.3 - 0.0 - Partly cloudy 10 - - - -
15/01:30pm 26.8 ESE 15 23 1014.4 - 0.0 - Partly cloudy 10 - - - -
15/12:30pm 25.2 ESE 14 21 1015.3 - 0.0 - Partly cloudy 10 - - - -
15/12:00pm 25.8 SE 14 18 1015.8 - 0.0 - Cloudy 10 - - - -
15/11:30am 26.0 SE 13 19 1016.0 - 0.0 - Partly cloudy 10 - - - -
15/11:00am 25.7 SE 14 21 1016.3 - 0.0 - Cloudy 10 - - - -
15/10:30am 26.6 ESE 14 21 1016.7 - 0.0 - Partly cloudy 10 - - - -
15/10:00am 26.5 ESE 13 19 1017.0 - 0.0 - Partly cloudy 10 - - - -
15/09:30am 26.3 ESE 13 19 1017.0 - 0.0 - - 10 - - - -
15/09:00am 25.6 SE 10 19 1016.8 F 0.0 Fine Mostly clear 40 - - - -
15/08:30am 25.1 ESE 13 19 1016.7 - 0.0 - - 10 - - - -
15/08:00am 24.5 ESE 13 23 1016.4 - 0.0 - - 10 - - - -
15/07:30am 23.8 ESE 10 15 1016.2 - 0.0 - Partly cloudy 10 - - - -
15/07:00am 23.2 ESE 9 17 1016.0 - 0.0 - Partly cloudy 10 - - - -
15/06:30am 23.0 SE 9 13 1015.8 - 0.0 - Partly cloudy 10 - - - -
15/06:00am 22.6 SSE 7 11 1015.5 - 0.0 - Cloudy 10 - - - -
15/05:30am 22.7 ESE 8 11 1015.4 - 0.0 - Partly cloudy 10 - - - -
15/05:00am 22.5 SE 7 11 1015.3 - 0.0 - Partly cloudy 10 - - - -
15/04:30am 22.7 SE 7 11 1015.3 - 0.0 - Partly cloudy 10 - - - -
15/04:00am 22.9 ESE 11 15 1015.3 - 0.0 - Partly cloudy 10 - - - -
15/03:30am 23.2 ESE 12 17 1015.4 - 0.0 - Partly cloudy 10 - - - -
15/03:00am 23.0 ESE 11 17 1015.4 - 0.0 - Cloudy 10 - - - -
15/02:30am 23.4 ESE 11 16 1015.5 - 0.0 - Partly cloudy 10 - - - -
15/02:00am 22.9 SE 6 9 1015.7 - 0.0 - Partly cloudy 10 - - - -
15/01:30am 22.9 SE 8 13 1015.8 - 0.0 - Partly cloudy 10 - - - -
15/01:00am 23.3 ESE 9 15 1016.1 - 0.0 - Partly cloudy 10 - - - -
15/12:30am 23.6 ESE 11 16 1016.3 - 0.0 - Partly cloudy 10 - - - -
15/12:00am 23.3 ESE 9 17 1016.6 - 0.0 - Cloudy 10 - - - -
 
Date/Time
EST
Temp
°C
Wind Pressure Rain since
9am
mm
Weather Cloud Vis
km
Sea
Height
m
Swell
Dir  Spd
kts
Gust
kts
hPa Trend Height
m
Period
s
Dir
14/11:30pm 23.3 SE 9 13 1016.8 - 0.0 - Partly cloudy 10 - - - -
14/11:00pm 23.8 ESE 10 15 1016.9 - 0.0 - Partly cloudy 10 - - - -
14/10:30pm 23.6 ESE 11 17 1017.0 - 0.0 - Partly cloudy 10 - - - -
14/10:00pm 23.8 SE 9 14 1017.0 - 0.0 - Partly cloudy 10 - - - -
14/09:30pm 23.3 SE 8 13 1017.0 - 0.0 - Partly cloudy 10 - - - -
14/09:00pm 23.1 SE 8 11 1016.9 - 0.0 - Mostly clear 10 - - - -
14/08:30pm 23.2 SE 8 12 1016.8 - 0.0 - - 10 - - - -
14/08:00pm 23.3 SE 8 12 1016.5 - 0.0 - Partly cloudy 10 - - - -
14/07:30pm 23.0 SE 6 12 1016.4 - 0.0 - Partly cloudy 10 - - - -
14/07:00pm 23.0 SE 6 10 1016.0 - 0.0 - Partly cloudy 10 - - - -
14/06:30pm 23.1 ESE 7 13 1015.9 - 0.0 - Partly cloudy 10 - - - -
14/06:00pm 23.9 SSE 10 13 1015.6 - 0.0 - Partly cloudy 10 - - - -
14/05:30pm 24.3 ESE 11 18 1015.5 - 0.0 - Partly cloudy 10 - - - -
14/05:00pm 24.8 SE 12 21 1015.3 - 0.0 - Partly cloudy 10 - - - -
14/04:30pm 25.3 SE 13 19 1014.8 - 0.0 - - 10 - - - -
14/04:00pm 26.0 SE 12 18 1014.5 - 0.0 - - 10 - - - -
14/03:30pm 26.6 SE 13 19 1014.6 - 0.0 - - 10 - - - -
14/03:00pm 26.5 SE 13 21 1014.8 - 0.0 - - 10 - - - -
14/02:30pm 26.5 SE 15 23 1014.9 - 0.0 - - 10 - - - -
14/02:01pm 27.1 ESE 15 25 1015.1 - 0.0 - - 10 - - - -
14/02:00pm 27.1 ESE 15 22 1015.1 - 0.0 - - 10 - - - -
14/01:36pm 27.3 ESE 16 27 1015.4 - 0.0 - - 10 - - - -
14/01:30pm 26.8 ESE 17 25 1015.6 - 0.0 - - 10 - - - -
14/01:02pm 27.1 ESE 16 26 1016.1 - 0.0 - - 10 - - - -
14/01:00pm 27.0 ESE 17 26 1016.1 - 0.0 - - 10 - - - -
14/12:48pm 26.7 ESE 16 26 1016.2 - 0.0 - - 10 - - - -
14/12:30pm 27.6 ESE 13 21 1016.5 - 0.0 - - 10 - - - -
14/12:00pm 27.1 ESE 17 24 1017.0 - 0.0 - - 10 - - - -
14/11:00am 26.7 ESE 16 22 1017.5 - 0.0 - - 10 - - - -
14/10:53am 26.3 SE 15 25 1017.7 - 0.0 - Partly cloudy 10 - - - -
14/10:30am 27.2 SE 12 21 1017.9 - 0.0 - Partly cloudy 10 - - - -
14/10:00am 25.1 ESE 14 19 1018.0 - 0.0 - Partly cloudy 10 - - - -
14/09:30am 25.6 SE 12 20 1018.0 - 0.0 - Partly cloudy 10 - - - -
14/09:00am 24.5 SE 12 - 1017.8 F 0.0 Haze Mostly clear 30 - - - -
14/08:30am 23.9 SE 9 14 1017.8 - 0.0 - - 10 - - - -
14/08:00am 22.9 ESE 5 8 1017.5 - 0.0 - Partly cloudy 10 - - - -
14/07:30am 22.6 SE 9 15 1017.2 - 0.0 - Partly cloudy 10 - - - -
14/07:00am 22.4 ESE 8 11 1017.1 - 0.0 - Partly cloudy 10 - - - -
14/06:30am 22.0 SE 7 13 1016.7 - 0.0 - Partly cloudy 10 - - - -
14/06:00am 22.2 SE 9 11 1016.5 - 0.0 - Partly cloudy 10 - - - -

Other Formats:

Comma delimited format used in spreadsheet applications
http://www.bom.gov.au/fwo/IDQ60701/IDQ60701.95283.axf

JavaScript Object Notation format (JSON) in row-major order
http://www.bom.gov.au/fwo/IDQ60701/IDQ60701.95283.json